createdAt,value
2022-12-04T00:02:35.000Z,32.88
2022-12-04T00:07:35.000Z,32.49
2022-12-04T00:12:34.000Z,33.41
2022-12-04T00:17:35.000Z,35.27
2022-12-04T00:22:35.000Z,33.67
2022-12-04T00:27:34.000Z,34.43
2022-12-04T00:32:35.000Z,34.59
2022-12-04T00:37:34.000Z,35.27
2022-12-04T00:42:34.000Z,36.66
2022-12-04T00:47:35.000Z,36.65
2022-12-04T00:52:34.000Z,38.96
2022-12-04T00:57:35.000Z,38.96
2022-12-04T01:02:34.000Z,38.3
2022-12-04T01:07:34.000Z,38.41
2022-12-04T01:12:35.000Z,40.03
2022-12-04T01:17:35.000Z,39.62
2022-12-04T01:22:35.000Z,36.29
2022-12-04T01:27:35.000Z,44.23
2022-12-04T01:32:34.000Z,37.1
2022-12-04T01:37:35.000Z,38.52
2022-12-04T01:42:34.000Z,36.55
2022-12-04T01:47:35.000Z,32.59
2022-12-04T01:52:34.000Z,38.83
2022-12-04T01:57:35.000Z,44.57
2022-12-04T02:02:35.000Z,49.78
2022-12-04T02:07:35.000Z,46.05
2022-12-04T02:12:35.000Z,46.05
2022-12-04T02:17:35.000Z,45.94
2022-12-04T02:27:34.000Z,31.73
2022-12-04T02:32:34.000Z,37.76
2022-12-04T02:37:35.000Z,37.18
2022-12-04T02:42:35.000Z,37.18
2022-12-04T02:47:34.000Z,30.47
2022-12-04T02:52:35.000Z,33.29
2022-12-04T02:57:35.000Z,34.34
2022-12-04T03:02:35.000Z,33.16
2022-12-04T03:07:35.000Z,33.7
2022-12-04T03:12:34.000Z,32.83
2022-12-04T03:17:35.000Z,34.2
2022-12-04T03:22:35.000Z,32.88
2022-12-04T03:27:35.000Z,31.67
2022-12-04T03:32:34.000Z,31.71
2022-12-04T03:37:39.000Z,30.44
2022-12-04T03:42:34.000Z,31.58
2022-12-04T03:52:34.000Z,34.96
2022-12-04T03:57:34.000Z,29.92
2022-12-04T04:02:34.000Z,29.26
2022-12-04T04:07:41.000Z,30.13
2022-12-04T04:12:35.000Z,31.6
2022-12-04T04:17:35.000Z,30.71
2022-12-04T04:27:35.000Z,28.3
2022-12-04T04:32:34.000Z,30.46
2022-12-04T04:37:35.000Z,29.9
2022-12-04T04:42:35.000Z,29.85
2022-12-04T04:47:35.000Z,26.81
2022-12-04T04:57:35.000Z,29.34
2022-12-04T05:02:35.000Z,28.04
2022-12-04T05:07:35.000Z,28.15
2022-12-04T05:12:35.000Z,28.06
2022-12-04T05:17:34.000Z,37.32
2022-12-04T05:22:35.000Z,65.63
2022-12-04T05:27:34.000Z,75.77
2022-12-04T05:32:35.000Z,55.64
2022-12-04T05:37:34.000Z,55.64
2022-12-04T05:42:34.000Z,42.02
2022-12-04T05:47:35.000Z,33.42
2022-12-04T05:52:35.000Z,29.42
2022-12-04T05:57:35.000Z,29.58
2022-12-04T06:02:34.000Z,32.71
2022-12-04T06:07:35.000Z,30.83
2022-12-04T06:12:34.000Z,29.93
2022-12-04T06:17:35.000Z,32.15
2022-12-04T06:22:35.000Z,29.14
2022-12-04T06:27:38.000Z,27.8
2022-12-04T06:32:34.000Z,25.57
2022-12-04T06:37:35.000Z,26.88
2022-12-04T06:42:35.000Z,24.86
2022-12-04T06:47:35.000Z,25.23
2022-12-04T06:52:35.000Z,25.23
2022-12-04T06:57:34.000Z,24.43
2022-12-04T07:02:35.000Z,25.33
2022-12-04T07:07:35.000Z,26.44
2022-12-04T07:12:35.000Z,25.18
2022-12-04T07:17:35.000Z,24.38
2022-12-04T07:22:35.000Z,24.9
2022-12-04T07:27:35.000Z,23.65
2022-12-04T07:32:34.000Z,23.56
2022-12-04T07:37:35.000Z,20.81
2022-12-04T07:42:34.000Z,19.71
2022-12-04T07:47:35.000Z,20.26
2022-12-04T07:52:34.000Z,20
2022-12-04T07:57:35.000Z,19.35
2022-12-04T08:02:35.000Z,20.23
2022-12-04T08:07:35.000Z,20.23
2022-12-04T08:12:35.000Z,20.05
2022-12-04T08:17:34.000Z,19.81
2022-12-04T08:22:35.000Z,19.52
2022-12-04T08:27:34.000Z,20.66
2022-12-04T08:32:35.000Z,19.66
2022-12-04T08:37:34.000Z,20.75
2022-12-04T08:42:35.000Z,18.91
2022-12-04T08:47:34.000Z,20.66
2022-12-04T08:52:35.000Z,22.38
2022-12-04T08:57:34.000Z,22.39
2022-12-04T09:02:35.000Z,24.16
2022-12-04T09:07:34.000Z,20.98
2022-12-04T09:12:34.000Z,22.05
2022-12-04T09:17:34.000Z,20.31
2022-12-04T09:22:35.000Z,20.31
2022-12-04T09:27:34.000Z,22.36
2022-12-04T09:32:35.000Z,23.19
2022-12-04T09:37:34.000Z,20.37
2022-12-04T09:47:34.000Z,21.81
2022-12-04T09:52:35.000Z,19.83
2022-12-04T09:57:35.000Z,19.93
2022-12-04T10:02:35.000Z,19.11
2022-12-04T10:07:35.000Z,20.74
2022-12-04T10:12:35.000Z,20.74
2022-12-04T10:17:42.000Z,18.85
2022-12-04T10:22:35.000Z,19.72
2022-12-04T10:27:34.000Z,19.16
2022-12-04T10:32:35.000Z,18.12
2022-12-04T10:37:34.000Z,17.76
2022-12-04T10:42:35.000Z,19.38
2022-12-04T10:47:35.000Z,19.58
2022-12-04T10:52:34.000Z,18.93
2022-12-04T11:02:35.000Z,18.85
2022-12-04T11:07:35.000Z,18.1
2022-12-04T11:12:35.000Z,17.87
2022-12-04T11:17:34.000Z,18.92
2022-12-04T11:22:35.000Z,17.74
2022-12-04T11:27:35.000Z,18.63
2022-12-04T11:32:35.000Z,18.8
2022-12-04T11:37:35.000Z,16.96
2022-12-04T11:42:34.000Z,16.96
2022-12-04T11:47:34.000Z,18.51
2022-12-04T11:52:34.000Z,18.63
2022-12-04T11:57:35.000Z,19.56
2022-12-04T12:02:35.000Z,18.79
2022-12-04T12:07:35.000Z,19.34
2022-12-04T12:12:35.000Z,18.1
2022-12-04T12:17:34.000Z,18.19
2022-12-04T12:22:34.000Z,20.84
2022-12-04T12:27:35.000Z,20.6
2022-12-04T12:32:35.000Z,22.95
2022-12-04T12:37:35.000Z,22.09
2022-12-04T12:42:35.000Z,23.86
2022-12-04T12:47:35.000Z,21.54
2022-12-04T12:52:35.000Z,21.54
2022-12-04T12:57:35.000Z,22.48
2022-12-04T13:02:35.000Z,22
2022-12-04T13:07:35.000Z,23.16
2022-12-04T13:12:35.000Z,23.9
2022-12-04T13:17:34.000Z,23.31
2022-12-04T13:22:34.000Z,23.57
2022-12-04T13:27:35.000Z,24.57
2022-12-04T13:32:37.000Z,22.75
2022-12-04T13:37:35.000Z,21.4
2022-12-04T13:42:34.000Z,22.97
2022-12-04T13:47:35.000Z,20.96
2022-12-04T13:52:34.000Z,22.19
2022-12-04T13:57:34.000Z,25.52
2022-12-04T14:02:34.000Z,25.43
2022-12-04T14:07:35.000Z,25.43
2022-12-04T14:12:35.000Z,26.31
2022-12-04T14:17:34.000Z,29.06
2022-12-04T14:22:35.000Z,30.28
2022-12-04T14:27:34.000Z,28.82
2022-12-04T14:32:34.000Z,27.55
2022-12-04T14:37:35.000Z,26.53
2022-12-04T14:42:34.000Z,25
2022-12-04T14:47:34.000Z,24.51
2022-12-04T14:52:34.000Z,23.62
2022-12-04T14:57:34.000Z,23.91
2022-12-04T15:02:35.000Z,21.84
2022-12-04T15:07:35.000Z,25.16
2022-12-04T15:12:34.000Z,24.01
2022-12-04T15:17:35.000Z,24.65
2022-12-04T15:22:34.000Z,24.65
2022-12-04T15:27:42.000Z,29.66
2022-12-04T15:32:35.000Z,27.18
2022-12-04T15:37:35.000Z,28.44
2022-12-04T15:42:35.000Z,28.28
2022-12-04T15:47:35.000Z,28.19
2022-12-04T15:52:35.000Z,28.9
2022-12-04T15:57:34.000Z,28.52
2022-12-04T16:02:35.000Z,29.53
2022-12-04T16:07:34.000Z,29.9
2022-12-04T16:12:36.000Z,31.27
2022-12-04T16:17:35.000Z,29.88
2022-12-04T16:22:34.000Z,29.8
2022-12-04T16:27:35.000Z,27.82
2022-12-04T16:32:35.000Z,27.97
2022-12-04T16:37:35.000Z,27.97
2022-12-04T16:42:34.000Z,28.79
2022-12-04T16:47:35.000Z,31.8
2022-12-04T16:52:34.000Z,29.68
2022-12-04T16:57:35.000Z,29.44
2022-12-04T17:02:34.000Z,31.43
2022-12-04T17:07:35.000Z,30.21
2022-12-04T17:12:34.000Z,32.01
2022-12-04T17:17:35.000Z,31.65
2022-12-04T17:22:34.000Z,33.38
2022-12-04T17:27:35.000Z,32.78
2022-12-04T17:32:34.000Z,31.99
2022-12-04T17:37:35.000Z,32.3
2022-12-04T17:42:35.000Z,30.91
2022-12-04T17:57:35.000Z,31.95
2022-12-04T18:02:34.000Z,30.43
2022-12-04T18:07:35.000Z,27.63
2022-12-04T18:12:35.000Z,28.55
2022-12-04T18:22:34.000Z,29.07
2022-12-04T18:27:35.000Z,26.43
2022-12-04T18:32:34.000Z,26.43
2022-12-04T18:37:35.000Z,29.32
2022-12-04T18:42:35.000Z,27.69
2022-12-04T18:47:35.000Z,26.7
2022-12-04T18:52:34.000Z,26.54
2022-12-04T18:57:35.000Z,24.93
2022-12-04T19:07:35.000Z,26.39
2022-12-04T19:12:35.000Z,25.44
2022-12-04T19:17:35.000Z,25.44
2022-12-04T19:22:35.000Z,23.72
2022-12-04T19:27:34.000Z,25.54
2022-12-04T19:32:35.000Z,24.81
2022-12-04T19:37:34.000Z,25.77
2022-12-04T19:42:35.000Z,25.17
2022-12-04T19:47:34.000Z,26.82
2022-12-04T19:52:35.000Z,26.4
2022-12-04T19:57:35.000Z,23.68
2022-12-04T20:02:35.000Z,26.84
2022-12-04T20:07:34.000Z,24.96
2022-12-04T20:17:34.000Z,27.86
2022-12-04T20:22:35.000Z,25.9
2022-12-04T20:27:35.000Z,26.66
2022-12-04T20:32:35.000Z,25.61
2022-12-04T20:37:35.000Z,25.52
2022-12-04T20:42:43.000Z,25.84
2022-12-04T20:47:34.000Z,25.84
2022-12-04T20:52:35.000Z,25.83
2022-12-04T20:57:34.000Z,25.48
2022-12-04T21:02:35.000Z,25.27
2022-12-04T21:07:34.000Z,25.42
2022-12-04T21:12:35.000Z,26.43
2022-12-04T21:17:34.000Z,23.86
2022-12-04T21:22:35.000Z,24.67
2022-12-04T21:27:34.000Z,24.41
2022-12-04T21:32:35.000Z,26.33
2022-12-04T21:37:35.000Z,26.22
2022-12-04T21:47:35.000Z,25.91
2022-12-04T21:52:34.000Z,25.5
2022-12-04T21:57:35.000Z,27.4
2022-12-04T22:02:34.000Z,27.82
2022-12-04T22:07:35.000Z,27.7
2022-12-04T22:12:59.000Z,30.82
2022-12-04T22:17:34.000Z,30.06
2022-12-04T22:22:35.000Z,28.83
2022-12-04T22:27:35.000Z,30.41
2022-12-04T22:32:35.000Z,30.41
2022-12-04T22:37:34.000Z,30.53
2022-12-04T22:42:34.000Z,29.96
2022-12-04T22:47:35.000Z,30.29
2022-12-04T22:52:35.000Z,30.58
2022-12-04T22:57:35.000Z,28.59
2022-12-04T23:02:34.000Z,28.33
2022-12-04T23:07:35.000Z,29.02
2022-12-04T23:12:34.000Z,28.31
2022-12-04T23:17:35.000Z,29.56
2022-12-04T23:22:34.000Z,55.05
2022-12-04T23:27:34.000Z,111.08
2022-12-04T23:42:34.000Z,99.53
2022-12-04T23:47:35.000Z,88.82
2022-12-04T23:52:34.000Z,74.87
2022-12-04T23:57:35.000Z,59.33
